KSNA/SNA METAR and TAF weather

Enter ICAO airport designator
Station Type Date Time Source
KSNA METAR 2020/08/05 15:53 UTC NOAA

KSNA 051553Z 14004KT 10SM OVC023 21/14 A2994 RMK AO2 SLP139 T02110144


Station Type Date Time Source
KSNA Decoded METAR 2020/08/05 15:53 UTC NOAA

SANTA ANA WAYNE ORANGE CTY, CA, United States (KSNA) 33-41N 117-52W 15M
Aug 05, 2020 - 11:53 AM EDT / 2020.08.05 1553 UTC
Wind: from the SE (140 degrees) at 5 MPH (4 KT):0
Visibility: 10 mile(s):0
Sky conditions: overcast
Temperature: 70.0 F (21.1 C)
Dew Point: 57.9 F (14.4 C)
Relative Humidity: 65%
Pressure (altimeter): 29.94 in. Hg (1013 hPa)
ob: KSNA 051553Z 14004KT 10SM OVC023 21/14 A2994 RMK AO2 SLP139 T02110144
cycle: 16

Station Type Date Time Source
KSNA TAF 2020/08/05 12:27 UTC NOAA

TAF KSNA 051125Z 0512/0612 17005KT P6SM OVC018
FM051700 20005KT P6SM BKN020
FM051900 21010KT P6SM SCT020
FM060300 VRB04KT P6SM SCT015
FM060500 VRB04KT P6SM OVC015

Example: see airport list